sensor_id;sensor_type;location;lat;lon;timestamp;temperature;humidity
15636;DHT22;7917;50.818;6.972;2023-07-13T00:00:19;16.60;99.40
15636;DHT22;7917;50.818;6.972;2023-07-13T00:02:46;16.50;99.90
15636;DHT22;7917;50.818;6.972;2023-07-13T00:05:13;16.50;99.90
15636;DHT22;7917;50.818;6.972;2023-07-13T00:07:40;16.50;99.90
15636;DHT22;7917;50.818;6.972;2023-07-13T00:10:08;16.40;99.90
15636;DHT22;7917;50.818;6.972;2023-07-13T00:12:37;16.40;99.90
15636;DHT22;7917;50.818;6.972;2023-07-13T00:15:06;16.30;99.90
15636;DHT22;7917;50.818;6.972;2023-07-13T00:17:33;16.30;99.90
15636;DHT22;7917;50.818;6.972;2023-07-13T00:20:00;16.20;99.90
15636;DHT22;7917;50.818;6.972;2023-07-13T00:22:27;16.10;99.90
15636;DHT22;7917;50.818;6.972;2023-07-13T00:24:54;16.10;99.90
15636;DHT22;7917;50.818;6.972;2023-07-13T00:27:22;16.00;99.90
15636;DHT22;7917;50.818;6.972;2023-07-13T00:29:49;16.00;99.90
15636;DHT22;7917;50.818;6.972;2023-07-13T00:32:16;15.90;99.90
15636;DHT22;7917;50.818;6.972;2023-07-13T00:34:42;15.90;99.90
15636;DHT22;7917;50.818;6.972;2023-07-13T00:37:09;15.90;99.90
15636;DHT22;7917;50.818;6.972;2023-07-13T00:39:37;15.90;99.90
15636;DHT22;7917;50.818;6.972;2023-07-13T00:42:04;15.90;99.90
15636;DHT22;7917;50.818;6.972;2023-07-13T00:44:30;15.80;99.90
15636;DHT22;7917;50.818;6.972;2023-07-13T00:46:58;15.70;99.90
15636;DHT22;7917;50.818;6.972;2023-07-13T00:49:26;15.70;99.90
15636;DHT22;7917;50.818;6.972;2023-07-13T00:51:56;15.60;99.90
15636;DHT22;7917;50.818;6.972;2023-07-13T00:54:26;15.60;99.90
15636;DHT22;7917;50.818;6.972;2023-07-13T00:56:58;15.60;99.90
15636;DHT22;7917;50.818;6.972;2023-07-13T00:59:25;15.60;99.90
15636;DHT22;7917;50.818;6.972;2023-07-13T01:01:52;15.60;99.90
15636;DHT22;7917;50.818;6.972;2023-07-13T01:04:19;15.50;99.90
15636;DHT22;7917;50.818;6.972;2023-07-13T01:06:46;15.40;99.90
15636;DHT22;7917;50.818;6.972;2023-07-13T01:09:13;15.30;99.90
15636;DHT22;7917;50.818;6.972;2023-07-13T01:11:40;15.30;99.90
15636;DHT22;7917;50.818;6.972;2023-07-13T01:14:09;15.30;99.90
15636;DHT22;7917;50.818;6.972;2023-07-13T01:16:37;15.10;99.90
15636;DHT22;7917;50.818;6.972;2023-07-13T01:19:12;15.10;99.90
15636;DHT22;7917;50.818;6.972;2023-07-13T01:21:42;15.10;99.90
15636;DHT22;7917;50.818;6.972;2023-07-13T01:24:09;15.10;99.90
15636;DHT22;7917;50.818;6.972;2023-07-13T01:26:35;15.00;99.90
15636;DHT22;7917;50.818;6.972;2023-07-13T01:29:01;14.90;99.90
15636;DHT22;7917;50.818;6.972;2023-07-13T01:31:28;14.90;99.90
15636;DHT22;7917;50.818;6.972;2023-07-13T01:33:55;14.90;99.90
15636;DHT22;7917;50.818;6.972;2023-07-13T01:36:23;14.80;99.90
15636;DHT22;7917;50.818;6.972;2023-07-13T01:38:51;14.80;99.90
15636;DHT22;7917;50.818;6.972;2023-07-13T01:41:17;14.80;99.90
15636;DHT22;7917;50.818;6.972;2023-07-13T01:43:44;14.80;99.90
15636;DHT22;7917;50.818;6.972;2023-07-13T01:46:10;14.70;99.90
15636;DHT22;7917;50.818;6.972;2023-07-13T01:48:37;14.70;99.90
15636;DHT22;7917;50.818;6.972;2023-07-13T01:51:03;14.80;99.90
15636;DHT22;7917;50.818;6.972;2023-07-13T01:53:30;14.80;99.90
15636;DHT22;7917;50.818;6.972;2023-07-13T01:55:57;14.80;99.90
15636;DHT22;7917;50.818;6.972;2023-07-13T01:58:24;14.80;99.90
15636;DHT22;7917;50.818;6.972;2023-07-13T02:00:51;14.70;99.90
15636;DHT22;7917;50.818;6.972;2023-07-13T02:03:18;14.60;99.90
15636;DHT22;7917;50.818;6.972;2023-07-13T02:05:45;14.60;99.90
15636;DHT22;7917;50.818;6.972;2023-07-13T02:08:12;14.60;99.90
15636;DHT22;7917;50.818;6.972;2023-07-13T02:10:38;14.50;99.90
15636;DHT22;7917;50.818;6.972;2023-07-13T02:13:06;14.50;99.90
15636;DHT22;7917;50.818;6.972;2023-07-13T02:15:33;14.60;99.90
15636;DHT22;7917;50.818;6.972;2023-07-13T02:18:00;14.60;99.90
15636;DHT22;7917;50.818;6.972;2023-07-13T02:20:26;14.60;99.90
15636;DHT22;7917;50.818;6.972;2023-07-13T02:22:54;14.60;99.90
15636;DHT22;7917;50.818;6.972;2023-07-13T02:25:20;14.60;99.90
15636;DHT22;7917;50.818;6.972;2023-07-13T02:27:46;14.50;99.90
15636;DHT22;7917;50.818;6.972;2023-07-13T02:30:14;14.50;99.90
15636;DHT22;7917;50.818;6.972;2023-07-13T02:32:40;14.60;99.90
15636;DHT22;7917;50.818;6.972;2023-07-13T02:35:07;14.50;99.90
15636;DHT22;7917;50.818;6.972;2023-07-13T02:37:33;14.50;99.90
15636;DHT22;7917;50.818;6.972;2023-07-13T02:40:00;14.50;99.90
15636;DHT22;7917;50.818;6.972;2023-07-13T02:42:26;14.30;99.90
15636;DHT22;7917;50.818;6.972;2023-07-13T02:44:53;14.40;99.90
15636;DHT22;7917;50.818;6.972;2023-07-13T02:47:20;14.30;99.90
15636;DHT22;7917;50.818;6.972;2023-07-13T02:49:46;14.30;99.90
15636;DHT22;7917;50.818;6.972;2023-07-13T02:52:12;14.20;99.90
15636;DHT22;7917;50.818;6.972;2023-07-13T02:54:39;14.20;99.90
15636;DHT22;7917;50.818;6.972;2023-07-13T02:57:06;14.20;99.90
15636;DHT22;7917;50.818;6.972;2023-07-13T02:59:32;14.20;99.90
15636;DHT22;7917;50.818;6.972;2023-07-13T03:02:01;14.20;99.90
15636;DHT22;7917;50.818;6.972;2023-07-13T03:04:28;14.10;99.90
15636;DHT22;7917;50.818;6.972;2023-07-13T03:06:54;14.10;99.90
15636;DHT22;7917;50.818;6.972;2023-07-13T03:09:23;14.10;99.90
15636;DHT22;7917;50.818;6.972;2023-07-13T03:11:51;14.30;99.90
15636;DHT22;7917;50.818;6.972;2023-07-13T03:14:18;14.30;99.90
15636;DHT22;7917;50.818;6.972;2023-07-13T03:16:44;14.50;99.90
15636;DHT22;7917;50.818;6.972;2023-07-13T03:19:11;14.60;99.90
15636;DHT22;7917;50.818;6.972;2023-07-13T03:21:38;14.60;99.90
15636;DHT22;7917;50.818;6.972;2023-07-13T03:24:06;14.60;99.90
15636;DHT22;7917;50.818;6.972;2023-07-13T03:26:32;14.70;99.90
15636;DHT22;7917;50.818;6.972;2023-07-13T03:28:58;14.60;99.90
15636;DHT22;7917;50.818;6.972;2023-07-13T03:31:27;14.60;99.90
15636;DHT22;7917;50.818;6.972;2023-07-13T03:33:54;14.50;99.90
15636;DHT22;7917;50.818;6.972;2023-07-13T03:36:22;14.40;99.90
15636;DHT22;7917;50.818;6.972;2023-07-13T03:38:52;14.30;99.90
15636;DHT22;7917;50.818;6.972;2023-07-13T03:41:19;14.20;99.90
15636;DHT22;7917;50.818;6.972;2023-07-13T03:43:45;14.20;99.90
15636;DHT22;7917;50.818;6.972;2023-07-13T03:46:13;14.20;99.90
15636;DHT22;7917;50.818;6.972;2023-07-13T03:48:40;14.30;99.90
15636;DHT22;7917;50.818;6.972;2023-07-13T03:51:08;14.30;99.90
15636;DHT22;7917;50.818;6.972;2023-07-13T03:53:38;14.30;99.90
15636;DHT22;7917;50.818;6.972;2023-07-13T03:56:07;14.40;99.90
15636;DHT22;7917;50.818;6.972;2023-07-13T03:58:35;14.50;99.90
15636;DHT22;7917;50.818;6.972;2023-07-13T04:01:03;14.50;99.90
15636;DHT22;7917;50.818;6.972;2023-07-13T04:03:31;14.40;99.90
15636;DHT22;7917;50.818;6.972;2023-07-13T04:05:58;14.40;99.90
15636;DHT22;7917;50.818;6.972;2023-07-13T04:08:27;14.40;99.90
15636;DHT22;7917;50.818;6.972;2023-07-13T04:10:53;14.30;99.90
15636;DHT22;7917;50.818;6.972;2023-07-13T04:13:21;14.30;99.90
15636;DHT22;7917;50.818;6.972;2023-07-13T04:15:47;14.30;99.90
15636;DHT22;7917;50.818;6.972;2023-07-13T04:18:13;14.30;99.90
15636;DHT22;7917;50.818;6.972;2023-07-13T04:20:40;14.40;99.90
15636;DHT22;7917;50.818;6.972;2023-07-13T04:23:06;14.50;99.90
15636;DHT22;7917;50.818;6.972;2023-07-13T04:25:33;14.50;99.90
15636;DHT22;7917;50.818;6.972;2023-07-13T04:27:59;14.50;99.90
15636;DHT22;7917;50.818;6.972;2023-07-13T04:30:26;14.50;99.90
15636;DHT22;7917;50.818;6.972;2023-07-13T04:32:53;14.60;99.90
15636;DHT22;7917;50.818;6.972;2023-07-13T04:35:20;14.60;99.90
15636;DHT22;7917;50.818;6.972;2023-07-13T04:37:48;14.70;99.90
15636;DHT22;7917;50.818;6.972;2023-07-13T04:40:17;14.80;99.90
15636;DHT22;7917;50.818;6.972;2023-07-13T04:42:43;14.90;99.90
15636;DHT22;7917;50.818;6.972;2023-07-13T04:45:10;14.90;99.90
15636;DHT22;7917;50.818;6.972;2023-07-13T04:47:37;15.00;99.90
15636;DHT22;7917;50.818;6.972;2023-07-13T04:50:04;15.10;99.90
15636;DHT22;7917;50.818;6.972;2023-07-13T04:52:31;15.10;99.90
15636;DHT22;7917;50.818;6.972;2023-07-13T04:54:58;15.20;99.90
15636;DHT22;7917;50.818;6.972;2023-07-13T04:57:25;15.20;99.90
15636;DHT22;7917;50.818;6.972;2023-07-13T04:59:52;15.30;99.90
15636;DHT22;7917;50.818;6.972;2023-07-13T05:02:19;15.30;99.90
15636;DHT22;7917;50.818;6.972;2023-07-13T05:04:47;15.40;99.90
15636;DHT22;7917;50.818;6.972;2023-07-13T05:07:14;15.50;99.90
15636;DHT22;7917;50.818;6.972;2023-07-13T05:09:40;15.50;99.90
15636;DHT22;7917;50.818;6.972;2023-07-13T05:12:08;15.70;99.90
15636;DHT22;7917;50.818;6.972;2023-07-13T05:14:35;15.80;99.90
15636;DHT22;7917;50.818;6.972;2023-07-13T05:17:01;15.90;99.90
15636;DHT22;7917;50.818;6.972;2023-07-13T05:19:27;16.10;99.90
15636;DHT22;7917;50.818;6.972;2023-07-13T05:21:55;16.30;99.90
15636;DHT22;7917;50.818;6.972;2023-07-13T05:24:21;16.50;99.90
15636;DHT22;7917;50.818;6.972;2023-07-13T05:26:48;16.60;99.90
15636;DHT22;7917;50.818;6.972;2023-07-13T05:29:14;16.80;99.90
15636;DHT22;7917;50.818;6.972;2023-07-13T05:31:42;16.90;99.90
15636;DHT22;7917;50.818;6.972;2023-07-13T05:34:08;17.10;99.90
15636;DHT22;7917;50.818;6.972;2023-07-13T05:36:34;17.20;99.90
15636;DHT22;7917;50.818;6.972;2023-07-13T05:39:02;17.40;92.50
15636;DHT22;7917;50.818;6.972;2023-07-13T05:41:29;17.60;89.60
15636;DHT22;7917;50.818;6.972;2023-07-13T05:43:55;17.60;85.40
15636;DHT22;7917;50.818;6.972;2023-07-13T05:46:23;17.80;86.10
15636;DHT22;7917;50.818;6.972;2023-07-13T05:48:49;18.00;72.50
15636;DHT22;7917;50.818;6.972;2023-07-13T05:51:16;18.20;61.40
15636;DHT22;7917;50.818;6.972;2023-07-13T05:53:43;18.20;58.70
15636;DHT22;7917;50.818;6.972;2023-07-13T05:56:10;18.30;48.50
15636;DHT22;7917;50.818;6.972;2023-07-13T05:58:37;18.40;51.20
15636;DHT22;7917;50.818;6.972;2023-07-13T06:01:05;18.50;44.70
15636;DHT22;7917;50.818;6.972;2023-07-13T06:03:32;18.70;37.70
15636;DHT22;7917;50.818;6.972;2023-07-13T06:05:59;18.80;29.80
15636;DHT22;7917;50.818;6.972;2023-07-13T06:08:26;18.60;41.10
15636;DHT22;7917;50.818;6.972;2023-07-13T06:10:52;18.70;45.90
15636;DHT22;7917;50.818;6.972;2023-07-13T06:13:20;18.70;35.40
15636;DHT22;7917;50.818;6.972;2023-07-13T06:15:48;18.40;47.30
15636;DHT22;7917;50.818;6.972;2023-07-13T06:18:15;18.50;46.10
15636;DHT22;7917;50.818;6.972;2023-07-13T06:20:42;18.50;45.90
15636;DHT22;7917;50.818;6.972;2023-07-13T06:23:09;18.40;46.10
15636;DHT22;7917;50.818;6.972;2023-07-13T06:25:35;18.50;54.80
15636;DHT22;7917;50.818;6.972;2023-07-13T06:28:01;18.90;37.90
15636;DHT22;7917;50.818;6.972;2023-07-13T06:30:28;19.30;25.50
15636;DHT22;7917;50.818;6.972;2023-07-13T06:32:56;19.20;22.90
15636;DHT22;7917;50.818;6.972;2023-07-13T06:35:22;19.20;22.30
15636;DHT22;7917;50.818;6.972;2023-07-13T06:37:48;19.30;38.50
15636;DHT22;7917;50.818;6.972;2023-07-13T06:40:16;19.50;15.90
15636;DHT22;7917;50.818;6.972;2023-07-13T06:42:42;19.60;14.40
15636;DHT22;7917;50.818;6.972;2023-07-13T06:45:09;19.90;8.20
15636;DHT22;7917;50.818;6.972;2023-07-13T06:47:37;19.60;8.60
15636;DHT22;7917;50.818;6.972;2023-07-13T06:50:07;19.40;14.90
15636;DHT22;7917;50.818;6.972;2023-07-13T06:52:34;19.30;18.80
15636;DHT22;7917;50.818;6.972;2023-07-13T06:55:01;19.30;18.60
15636;DHT22;7917;50.818;6.972;2023-07-13T06:57:28;19.30;20.90
15636;DHT22;7917;50.818;6.972;2023-07-13T06:59:54;19.20;23.90
15636;DHT22;7917;50.818;6.972;2023-07-13T07:02:21;19.20;25.60
15636;DHT22;7917;50.818;6.972;2023-07-13T07:04:48;19.30;25.80
15636;DHT22;7917;50.818;6.972;2023-07-13T07:07:16;19.40;21.90
15636;DHT22;7917;50.818;6.972;2023-07-13T07:09:43;19.40;24.60
15636;DHT22;7917;50.818;6.972;2023-07-13T07:12:09;19.60;20.00
15636;DHT22;7917;50.818;6.972;2023-07-13T07:14:36;19.60;19.90
15636;DHT22;7917;50.818;6.972;2023-07-13T07:17:03;19.50;39.50
15636;DHT22;7917;50.818;6.972;2023-07-13T07:19:30;19.50;19.40
15636;DHT22;7917;50.818;6.972;2023-07-13T07:21:57;19.40;21.50
15636;DHT22;7917;50.818;6.972;2023-07-13T07:24:25;19.20;26.80
15636;DHT22;7917;50.818;6.972;2023-07-13T07:26:51;19.30;25.80
15636;DHT22;7917;50.818;6.972;2023-07-13T07:29:17;19.30;28.20
15636;DHT22;7917;50.818;6.972;2023-07-13T07:31:44;19.40;21.40
15636;DHT22;7917;50.818;6.972;2023-07-13T07:34:10;19.50;20.40
15636;DHT22;7917;50.818;6.972;2023-07-13T07:36:37;19.80;15.90
15636;DHT22;7917;50.818;6.972;2023-07-13T07:39:04;20.10;9.60
15636;DHT22;7917;50.818;6.972;2023-07-13T07:41:32;20.20;1.90
15636;DHT22;7917;50.818;6.972;2023-07-13T07:43:58;20.20;4.60
15636;DHT22;7917;50.818;6.972;2023-07-13T07:46:25;20.60;1.00
15636;DHT22;7917;50.818;6.972;2023-07-13T07:48:51;20.80;1.00
15636;DHT22;7917;50.818;6.972;2023-07-13T07:51:17;21.20;1.00
15636;DHT22;7917;50.818;6.972;2023-07-13T07:53:44;21.70;1.00
15636;DHT22;7917;50.818;6.972;2023-07-13T07:56:11;21.80;1.00
15636;DHT22;7917;50.818;6.972;2023-07-13T07:58:37;21.80;1.00
15636;DHT22;7917;50.818;6.972;2023-07-13T08:01:05;21.40;1.00
15636;DHT22;7917;50.818;6.972;2023-07-13T08:03:32;21.20;1.00
15636;DHT22;7917;50.818;6.972;2023-07-13T08:05:58;21.30;1.00
15636;DHT22;7917;50.818;6.972;2023-07-13T08:08:25;21.50;1.00
15636;DHT22;7917;50.818;6.972;2023-07-13T08:10:52;21.50;1.00
15636;DHT22;7917;50.818;6.972;2023-07-13T08:13:19;21.90;1.00
15636;DHT22;7917;50.818;6.972;2023-07-13T08:15:46;22.30;1.00
15636;DHT22;7917;50.818;6.972;2023-07-13T08:18:12;22.70;1.00
15636;DHT22;7917;50.818;6.972;2023-07-13T08:20:39;22.50;1.00
15636;DHT22;7917;50.818;6.972;2023-07-13T08:23:06;22.40;1.00
15636;DHT22;7917;50.818;6.972;2023-07-13T08:25:33;22.50;1.00
15636;DHT22;7917;50.818;6.972;2023-07-13T08:27:59;22.60;1.00
15636;DHT22;7917;50.818;6.972;2023-07-13T08:30:27;22.50;1.00
15636;DHT22;7917;50.818;6.972;2023-07-13T08:32:54;22.40;1.00
15636;DHT22;7917;50.818;6.972;2023-07-13T08:35:20;22.40;1.00
15636;DHT22;7917;50.818;6.972;2023-07-13T08:37:46;22.80;1.00
15636;DHT22;7917;50.818;6.972;2023-07-13T08:40:13;23.00;1.00
15636;DHT22;7917;50.818;6.972;2023-07-13T08:42:44;22.90;1.00
15636;DHT22;7917;50.818;6.972;2023-07-13T08:45:20;22.80;1.00
15636;DHT22;7917;50.818;6.972;2023-07-13T08:47:52;22.70;1.00
15636;DHT22;7917;50.818;6.972;2023-07-13T08:50:25;22.80;1.00
15636;DHT22;7917;50.818;6.972;2023-07-13T08:52:55;22.80;1.00
15636;DHT22;7917;50.818;6.972;2023-07-13T08:55:26;23.10;1.00
15636;DHT22;7917;50.818;6.972;2023-07-13T08:58:00;22.70;1.00
15636;DHT22;7917;50.818;6.972;2023-07-13T09:00:37;22.50;1.00
15636;DHT22;7917;50.818;6.972;2023-07-13T09:03:12;22.80;1.00
15636;DHT22;7917;50.818;6.972;2023-07-13T09:05:40;23.10;1.00
15636;DHT22;7917;50.818;6.972;2023-07-13T09:08:26;23.10;1.00
15636;DHT22;7917;50.818;6.972;2023-07-13T09:11:01;23.20;1.00
15636;DHT22;7917;50.818;6.972;2023-07-13T09:13:36;23.20;1.00
15636;DHT22;7917;50.818;6.972;2023-07-13T09:16:03;23.20;1.00
15636;DHT22;7917;50.818;6.972;2023-07-13T09:18:35;23.30;1.00
15636;DHT22;7917;50.818;6.972;2023-07-13T09:21:09;23.00;1.00
15636;DHT22;7917;50.818;6.972;2023-07-13T09:23:37;23.10;1.00
15636;DHT22;7917;50.818;6.972;2023-07-13T09:26:06;22.40;1.00
15636;DHT22;7917;50.818;6.972;2023-07-13T09:28:39;22.20;1.00
15636;DHT22;7917;50.818;6.972;2023-07-13T09:31:09;22.40;1.00
15636;DHT22;7917;50.818;6.972;2023-07-13T09:33:39;22.80;1.00
15636;DHT22;7917;50.818;6.972;2023-07-13T09:36:20;23.10;1.00
15636;DHT22;7917;50.818;6.972;2023-07-13T09:38:48;23.20;1.00
15636;DHT22;7917;50.818;6.972;2023-07-13T09:41:21;23.20;1.00
15636;DHT22;7917;50.818;6.972;2023-07-13T09:44:09;23.00;1.00
15636;DHT22;7917;50.818;6.972;2023-07-13T09:46:35;23.30;1.00
15636;DHT22;7917;50.818;6.972;2023-07-13T09:49:02;23.50;1.00
15636;DHT22;7917;50.818;6.972;2023-07-13T09:51:29;23.40;1.00
15636;DHT22;7917;50.818;6.972;2023-07-13T09:53:55;23.20;1.00
15636;DHT22;7917;50.818;6.972;2023-07-13T09:56:24;23.10;1.00
15636;DHT22;7917;50.818;6.972;2023-07-13T09:58:52;23.20;1.00
15636;DHT22;7917;50.818;6.972;2023-07-13T10:01:32;22.80;1.00
15636;DHT22;7917;50.818;6.972;2023-07-13T10:03:59;22.70;1.00
15636;DHT22;7917;50.818;6.972;2023-07-13T10:06:27;23.20;1.00
15636;DHT22;7917;50.818;6.972;2023-07-13T10:08:56;23.70;1.00
15636;DHT22;7917;50.818;6.972;2023-07-13T10:11:24;23.60;1.00
15636;DHT22;7917;50.818;6.972;2023-07-13T10:13:53;24.00;1.00
15636;DHT22;7917;50.818;6.972;2023-07-13T10:16:22;24.10;1.00
15636;DHT22;7917;50.818;6.972;2023-07-13T10:18:50;24.20;1.00
15636;DHT22;7917;50.818;6.972;2023-07-13T10:21:19;24.20;1.00
15636;DHT22;7917;50.818;6.972;2023-07-13T10:23:51;23.90;1.00
15636;DHT22;7917;50.818;6.972;2023-07-13T10:26:22;23.70;1.00
15636;DHT22;7917;50.818;6.972;2023-07-13T10:28:53;23.30;1.00
15636;DHT22;7917;50.818;6.972;2023-07-13T10:31:21;23.30;1.00
15636;DHT22;7917;50.818;6.972;2023-07-13T10:33:48;23.50;1.00
15636;DHT22;7917;50.818;6.972;2023-07-13T10:36:22;23.50;1.00
15636;DHT22;7917;50.818;6.972;2023-07-13T10:38:54;23.10;1.00
15636;DHT22;7917;50.818;6.972;2023-07-13T10:41:23;23.20;1.00
15636;DHT22;7917;50.818;6.972;2023-07-13T10:43:53;23.20;1.00
15636;DHT22;7917;50.818;6.972;2023-07-13T10:46:22;23.20;1.00
15636;DHT22;7917;50.818;6.972;2023-07-13T10:48:53;23.10;1.00
15636;DHT22;7917;50.818;6.972;2023-07-13T10:51:21;23.20;1.00
15636;DHT22;7917;50.818;6.972;2023-07-13T10:54:14;23.20;1.00
15636;DHT22;7917;50.818;6.972;2023-07-13T10:56:42;23.20;1.00
15636;DHT22;7917;50.818;6.972;2023-07-13T10:59:12;23.20;1.00
15636;DHT22;7917;50.818;6.972;2023-07-13T11:01:49;23.30;1.00
15636;DHT22;7917;50.818;6.972;2023-07-13T11:04:16;23.50;1.00
15636;DHT22;7917;50.818;6.972;2023-07-13T11:06:48;23.60;1.00
15636;DHT22;7917;50.818;6.972;2023-07-13T11:09:31;23.70;1.00
15636;DHT22;7917;50.818;6.972;2023-07-13T11:11:59;23.50;1.00
15636;DHT22;7917;50.818;6.972;2023-07-13T11:14:31;23.70;1.00
15636;DHT22;7917;50.818;6.972;2023-07-13T11:17:32;23.60;1.00
15636;DHT22;7917;50.818;6.972;2023-07-13T11:20:20;23.60;1.00
15636;DHT22;7917;50.818;6.972;2023-07-13T11:22:49;23.80;1.00
15636;DHT22;7917;50.818;6.972;2023-07-13T11:25:26;23.50;1.00
15636;DHT22;7917;50.818;6.972;2023-07-13T11:30:59;23.30;1.00
15636;DHT22;7917;50.818;6.972;2023-07-13T11:33:31;23.50;1.00
15636;DHT22;7917;50.818;6.972;2023-07-13T11:36:14;23.80;1.00
15636;DHT22;7917;50.818;6.972;2023-07-13T11:38:42;23.90;1.00
15636;DHT22;7917;50.818;6.972;2023-07-13T11:41:15;23.90;1.00
15636;DHT22;7917;50.818;6.972;2023-07-13T11:43:43;23.70;1.00
15636;DHT22;7917;50.818;6.972;2023-07-13T11:46:18;23.60;1.00
15636;DHT22;7917;50.818;6.972;2023-07-13T11:48:47;23.80;1.00
15636;DHT22;7917;50.818;6.972;2023-07-13T11:51:19;23.90;1.00
15636;DHT22;7917;50.818;6.972;2023-07-13T11:53:49;23.80;1.00
15636;DHT22;7917;50.818;6.972;2023-07-13T11:56:17;23.80;1.00
15636;DHT22;7917;50.818;6.972;2023-07-13T11:58:44;24.00;1.00
15636;DHT22;7917;50.818;6.972;2023-07-13T12:01:18;24.00;1.00
15636;DHT22;7917;50.818;6.972;2023-07-13T12:03:46;24.10;1.00
15636;DHT22;7917;50.818;6.972;2023-07-13T12:06:31;24.10;1.00
15636;DHT22;7917;50.818;6.972;2023-07-13T12:08:58;23.90;1.00
15636;DHT22;7917;50.818;6.972;2023-07-13T12:11:27;23.70;1.00
15636;DHT22;7917;50.818;6.972;2023-07-13T12:13:53;23.50;1.00
15636;DHT22;7917;50.818;6.972;2023-07-13T12:16:26;23.20;1.00
15636;DHT22;7917;50.818;6.972;2023-07-13T12:18:54;23.10;1.00
15636;DHT22;7917;50.818;6.972;2023-07-13T12:21:26;22.90;1.00
15636;DHT22;7917;50.818;6.972;2023-07-13T12:23:54;22.90;1.00
15636;DHT22;7917;50.818;6.972;2023-07-13T12:26:21;22.80;1.00
15636;DHT22;7917;50.818;6.972;2023-07-13T12:28:51;22.80;1.00
15636;DHT22;7917;50.818;6.972;2023-07-13T12:31:26;22.90;1.00
15636;DHT22;7917;50.818;6.972;2023-07-13T12:33:57;23.20;1.00
15636;DHT22;7917;50.818;6.972;2023-07-13T12:36:24;23.40;1.00
15636;DHT22;7917;50.818;6.972;2023-07-13T12:38:51;23.80;1.00
15636;DHT22;7917;50.818;6.972;2023-07-13T12:41:18;23.50;1.00
15636;DHT22;7917;50.818;6.972;2023-07-13T12:43:45;23.50;1.00
15636;DHT22;7917;50.818;6.972;2023-07-13T12:46:18;23.50;1.00
15636;DHT22;7917;50.818;6.972;2023-07-13T12:48:49;23.50;1.00
15636;DHT22;7917;50.818;6.972;2023-07-13T12:51:15;23.30;1.00
15636;DHT22;7917;50.818;6.972;2023-07-13T12:53:48;23.30;1.00
15636;DHT22;7917;50.818;6.972;2023-07-13T12:56:19;23.30;1.00
15636;DHT22;7917;50.818;6.972;2023-07-13T12:58:48;23.30;1.00
15636;DHT22;7917;50.818;6.972;2023-07-13T13:01:22;23.30;1.00
15636;DHT22;7917;50.818;6.972;2023-07-13T13:03:50;23.60;1.00
15636;DHT22;7917;50.818;6.972;2023-07-13T13:06:22;23.60;1.00
15636;DHT22;7917;50.818;6.972;2023-07-13T13:08:52;23.50;1.00
15636;DHT22;7917;50.818;6.972;2023-07-13T13:11:20;23.70;1.00
15636;DHT22;7917;50.818;6.972;2023-07-13T13:13:47;24.00;1.00
15636;DHT22;7917;50.818;6.972;2023-07-13T13:16:18;24.30;1.00
15636;DHT22;7917;50.818;6.972;2023-07-13T13:18:46;24.50;1.00
15636;DHT22;7917;50.818;6.972;2023-07-13T13:21:15;24.50;1.00
15636;DHT22;7917;50.818;6.972;2023-07-13T13:23:42;24.80;1.00
15636;DHT22;7917;50.818;6.972;2023-07-13T13:26:12;24.90;1.00
15636;DHT22;7917;50.818;6.972;2023-07-13T13:28:39;25.10;1.00
15636;DHT22;7917;50.818;6.972;2023-07-13T13:31:08;25.30;1.00
15636;DHT22;7917;50.818;6.972;2023-07-13T13:33:38;25.10;1.00
15636;DHT22;7917;50.818;6.972;2023-07-13T13:36:13;24.90;1.00
15636;DHT22;7917;50.818;6.972;2023-07-13T13:38:41;25.20;1.00
15636;DHT22;7917;50.818;6.972;2023-07-13T13:41:10;25.30;1.00
15636;DHT22;7917;50.818;6.972;2023-07-13T13:43:37;25.10;1.00
15636;DHT22;7917;50.818;6.972;2023-07-13T13:46:12;24.50;1.00
15636;DHT22;7917;50.818;6.972;2023-07-13T13:48:41;23.90;1.00
15636;DHT22;7917;50.818;6.972;2023-07-13T13:51:14;23.90;1.00
15636;DHT22;7917;50.818;6.972;2023-07-13T13:53:41;24.60;1.00
15636;DHT22;7917;50.818;6.972;2023-07-13T13:56:08;25.10;1.00
15636;DHT22;7917;50.818;6.972;2023-07-13T13:58:35;25.50;1.00
15636;DHT22;7917;50.818;6.972;2023-07-13T14:01:02;25.80;1.00
15636;DHT22;7917;50.818;6.972;2023-07-13T14:03:29;26.00;1.00
15636;DHT22;7917;50.818;6.972;2023-07-13T14:05:56;26.20;1.00
15636;DHT22;7917;50.818;6.972;2023-07-13T14:08:24;26.20;1.00
15636;DHT22;7917;50.818;6.972;2023-07-13T14:10:53;26.40;1.00
15636;DHT22;7917;50.818;6.972;2023-07-13T14:13:25;26.30;1.00
15636;DHT22;7917;50.818;6.972;2023-07-13T14:15:53;25.90;1.00
15636;DHT22;7917;50.818;6.972;2023-07-13T14:18:20;26.00;1.00
15636;DHT22;7917;50.818;6.972;2023-07-13T14:20:47;25.90;1.00
15636;DHT22;7917;50.818;6.972;2023-07-13T14:23:14;25.60;1.00
15636;DHT22;7917;50.818;6.972;2023-07-13T14:25:42;25.90;1.00
15636;DHT22;7917;50.818;6.972;2023-07-13T14:28:19;26.10;1.00
15636;DHT22;7917;50.818;6.972;2023-07-13T14:30:47;26.30;1.00
15636;DHT22;7917;50.818;6.972;2023-07-13T14:33:14;26.20;1.00
15636;DHT22;7917;50.818;6.972;2023-07-13T14:35:41;26.40;1.00
15636;DHT22;7917;50.818;6.972;2023-07-13T14:38:13;26.40;1.00
15636;DHT22;7917;50.818;6.972;2023-07-13T14:40:42;26.40;1.00
15636;DHT22;7917;50.818;6.972;2023-07-13T14:43:13;26.50;1.00
15636;DHT22;7917;50.818;6.972;2023-07-13T14:45:49;26.40;1.00
15636;DHT22;7917;50.818;6.972;2023-07-13T14:48:21;26.90;1.00
15636;DHT22;7917;50.818;6.972;2023-07-13T14:50:53;26.90;1.00
15636;DHT22;7917;50.818;6.972;2023-07-13T14:53:20;27.10;1.00
15636;DHT22;7917;50.818;6.972;2023-07-13T14:55:47;27.00;1.00
15636;DHT22;7917;50.818;6.972;2023-07-13T14:58:14;27.00;1.00
15636;DHT22;7917;50.818;6.972;2023-07-13T15:00:42;26.60;1.00
15636;DHT22;7917;50.818;6.972;2023-07-13T15:03:18;26.60;1.00
15636;DHT22;7917;50.818;6.972;2023-07-13T15:05:47;26.30;1.00
15636;DHT22;7917;50.818;6.972;2023-07-13T15:08:15;25.60;1.00
15636;DHT22;7917;50.818;6.972;2023-07-13T15:10:42;25.50;1.00
15636;DHT22;7917;50.818;6.972;2023-07-13T15:13:17;25.50;1.00
15636;DHT22;7917;50.818;6.972;2023-07-13T15:15:49;25.00;1.00
15636;DHT22;7917;50.818;6.972;2023-07-13T15:18:20;25.70;1.00
15636;DHT22;7917;50.818;6.972;2023-07-13T15:20:51;26.20;1.00
15636;DHT22;7917;50.818;6.972;2023-07-13T15:23:19;27.40;1.00
15636;DHT22;7917;50.818;6.972;2023-07-13T15:25:46;27.10;1.00
15636;DHT22;7917;50.818;6.972;2023-07-13T15:28:12;26.70;1.00
15636;DHT22;7917;50.818;6.972;2023-07-13T15:30:48;27.30;1.00
15636;DHT22;7917;50.818;6.972;2023-07-13T15:33:19;27.90;1.00
15636;DHT22;7917;50.818;6.972;2023-07-13T15:35:49;28.10;1.00
15636;DHT22;7917;50.818;6.972;2023-07-13T15:38:24;27.30;1.00
15636;DHT22;7917;50.818;6.972;2023-07-13T15:40:52;26.80;1.00
15636;DHT22;7917;50.818;6.972;2023-07-13T15:43:20;27.10;1.00
15636;DHT22;7917;50.818;6.972;2023-07-13T15:45:48;26.50;1.00
15636;DHT22;7917;50.818;6.972;2023-07-13T15:48:18;26.90;1.00
15636;DHT22;7917;50.818;6.972;2023-07-13T15:50:48;27.00;1.00
15636;DHT22;7917;50.818;6.972;2023-07-13T15:53:19;26.50;1.00
15636;DHT22;7917;50.818;6.972;2023-07-13T15:55:46;25.80;1.00
15636;DHT22;7917;50.818;6.972;2023-07-13T15:58:13;25.30;1.00
15636;DHT22;7917;50.818;6.972;2023-07-13T16:00:41;25.10;1.00
15636;DHT22;7917;50.818;6.972;2023-07-13T16:03:09;24.60;1.00
15636;DHT22;7917;50.818;6.972;2023-07-13T16:05:36;24.80;1.00